Time;durP1;ratioP1;P1;durP2;ratioP2;P2;SDS_P1;SDS_P2;PMS_P1;PMS_P2;Temp;Humidity;BMP_temperature;BMP_pressure;BME280_temperature;BME280_humidity;BME280_pressure;Samples;Min_cycle;Max_cycle;Signal;HPM_P1;HPM_P2
2023/06/21 00:02:23;;;;;;;5.10;3.97;;;25.50;69.60;25.10;96363.00;;;;4992654;28;20202;-88
2023/06/21 00:04:51;;;;;;;3.93;3.60;;;25.40;69.60;25.10;96364.00;;;;4981157;28;20230;-88
2023/06/21 00:07:23;;;;;;;6.17;4.00;;;25.40;69.70;25.10;96352.00;;;;4972449;28;20202;-88
2023/06/21 00:09:51;;;;;;;3.70;3.40;;;25.40;69.70;25.10;96352.00;;;;4986826;28;20222;-89
2023/06/21 00:12:18;;;;;;;4.47;4.07;;;25.40;69.60;25.00;96352.00;;;;4977774;28;20254;-88
2023/06/21 00:14:45;;;;;;;5.43;3.80;;;25.40;69.60;25.00;96353.00;;;;4989850;28;20225;-88
2023/06/21 00:17:13;;;;;;;4.37;3.60;;;25.40;69.60;25.00;96352.00;;;;4986674;28;20202;-88
2023/06/21 00:19:40;;;;;;;3.97;3.60;;;25.40;69.60;25.00;96346.00;;;;4988797;28;20695;-88
2023/06/21 00:22:08;;;;;;;4.77;3.97;;;25.40;69.60;25.00;96342.00;;;;4994994;28;20258;-88
2023/06/21 00:24:37;;;;;;;4.20;3.80;;;25.40;69.70;24.90;96346.00;;;;4984131;28;20221;-88
2023/06/21 00:27:05;;;;;;;4.60;3.90;;;25.40;69.60;24.80;96354.00;;;;4984719;28;20583;-89
2023/06/21 00:29:32;;;;;;;3.97;3.67;;;25.30;69.50;24.80;96351.00;;;;4999638;28;20220;-89
2023/06/21 00:32:00;;;;;;;5.27;3.83;;;25.30;69.70;24.80;96351.00;;;;4976705;28;20207;-88
2023/06/21 00:34:27;;;;;;;4.00;3.50;;;25.20;69.70;24.80;96358.00;;;;4978882;28;20634;-88
2023/06/21 00:36:54;;;;;;;4.80;3.60;;;25.20;69.70;24.70;96358.00;;;;4993264;28;20202;-89
2023/06/21 00:39:21;;;;;;;5.43;4.20;;;25.20;69.80;24.70;96372.00;;;;5003496;28;20288;-89
2023/06/21 00:41:50;;;;;;;3.77;3.47;;;25.20;69.80;24.70;96383.00;;;;5004339;28;20194;-88
2023/06/21 00:44:17;;;;;;;5.23;3.63;;;25.10;70.00;24.70;96394.00;;;;4978304;28;20218;-88
2023/06/21 00:46:44;;;;;;;5.30;3.87;;;25.10;70.00;24.70;96408.00;;;;4992948;28;20632;-89
2023/06/21 00:49:12;;;;;;;5.77;3.40;;;25.10;70.00;24.70;96413.00;;;;4984795;28;20225;-89
2023/06/21 00:51:40;;;;;;;4.37;3.60;;;25.10;70.00;24.60;96410.00;;;;4984551;28;20702;-88
2023/06/21 00:54:09;;;;;;;3.30;3.00;;;25.10;69.90;24.60;96416.00;;;;4984077;28;20233;-89
2023/06/21 00:56:36;;;;;;;5.27;3.30;;;25.10;69.70;24.60;96416.00;;;;4992170;28;20201;-88
2023/06/21 00:59:05;;;;;;;3.97;2.93;;;25.00;69.40;24.60;96416.00;;;;4978761;28;20302;-88
2023/06/21 01:01:34;;;;;;;5.07;3.77;;;25.00;69.60;24.60;96418.00;;;;4983840;28;20210;-88
2023/06/21 01:04:01;;;;;;;4.13;2.93;;;25.00;69.10;24.60;96427.00;;;;4985291;28;20231;-87
2023/06/21 01:06:38;;;;;;;3.13;2.83;;;25.00;69.10;24.60;96426.00;;;;4987113;28;20278;-88
2023/06/21 01:09:34;;;;;;;3.43;3.10;;;25.00;69.40;24.60;96434.00;;;;4984630;28;20237;-88
2023/06/21 01:12:16;;;;;;;3.80;2.90;;;25.00;69.80;24.60;96429.00;;;;4992547;28;20547;-88
2023/06/21 01:14:57;;;;;;;4.73;3.40;;;25.00;69.30;24.60;96426.00;;;;4993642;28;20235;-88
2023/06/21 01:17:29;;;;;;;4.23;2.93;;;25.00;68.80;24.60;96427.00;;;;4993201;28;20216;-88
2023/06/21 01:20:00;;;;;;;3.93;3.07;;;25.00;68.70;24.60;96430.00;;;;4986195;28;20616;-88
2023/06/21 01:22:46;;;;;;;5.20;3.17;;;25.00;68.80;24.60;96434.00;;;;4983384;28;20242;-88
2023/06/21 01:25:30;;;;;;;3.80;2.97;;;25.00;69.30;24.60;96441.00;;;;4984360;28;20597;-87
2023/06/21 01:28:20;;;;;;;4.87;3.17;;;25.00;69.20;24.60;96432.00;;;;4983957;28;20204;-88
2023/06/21 01:30:50;;;;;;;3.50;2.80;;;25.00;69.30;24.50;96438.00;;;;4980455;28;20223;-88
2023/06/21 01:33:19;;;;;;;3.63;2.70;;;25.00;68.80;24.50;96437.00;;;;4984604;28;20226;-88
2023/06/21 01:35:48;;;;;;;4.07;2.63;;;25.00;68.80;24.50;96438.00;;;;4993525;28;20673;-88
2023/06/21 01:38:16;;;;;;;3.80;3.10;;;24.90;68.90;24.50;96436.00;;;;4986974;28;20201;-88
2023/06/21 01:40:43;;;;;;;4.53;2.90;;;24.90;68.80;24.40;96440.00;;;;4946160;28;20216;-87
2023/06/21 01:43:11;;;;;;;4.03;3.20;;;24.90;68.70;24.40;96435.00;;;;4988595;28;20246;-88
2023/06/21 01:45:40;;;;;;;8.30;3.77;;;24.90;68.70;24.40;96430.00;;;;4984209;28;20612;-88
2023/06/21 01:48:09;;;;;;;3.50;2.93;;;24.90;68.80;24.40;96425.00;;;;4987961;28;20213;-88
2023/06/21 01:50:40;;;;;;;4.73;2.87;;;24.80;68.70;24.40;96427.00;;;;4986850;28;20219;-88
2023/06/21 01:53:09;;;;;;;3.53;2.77;;;24.80;68.80;24.30;96431.00;;;;4973918;28;20226;-88
2023/06/21 01:55:41;;;;;;;3.57;2.90;;;24.80;68.90;24.30;96417.00;;;;4979202;28;20617;-88
2023/06/21 01:58:12;;;;;;;5.77;2.67;;;24.80;68.90;24.30;96423.00;;;;4966274;28;20572;-88
2023/06/21 02:00:40;;;;;;;4.90;2.77;;;24.80;68.80;24.20;96412.00;;;;4982161;28;20200;-88
2023/06/21 02:03:12;;;;;;;4.10;3.10;;;24.70;68.80;24.20;96420.00;;;;4981136;28;20285;-87
2023/06/21 02:05:43;;;;;;;4.87;3.27;;;24.70;68.90;24.20;96419.00;;;;4987286;28;20201;-88
2023/06/21 02:08:18;;;;;;;3.90;3.03;;;24.70;69.10;24.10;96420.00;;;;4984180;28;20221;-88
2023/06/21 02:10:46;;;;;;;3.20;2.87;;;24.60;69.00;24.10;96418.00;;;;4986081;28;20278;-88
2023/06/21 02:13:15;;;;;;;3.97;3.00;;;24.60;69.10;24.10;96411.00;;;;4976639;28;20240;-88
2023/06/21 02:15:43;;;;;;;6.20;3.10;;;24.60;69.10;24.00;96417.00;;;;4994032;28;20200;-88
2023/06/21 02:18:12;;;;;;;4.97;2.90;;;24.60;69.00;24.00;96418.00;;;;4976784;28;20213;-88
2023/06/21 02:20:40;;;;;;;3.30;3.00;;;24.50;69.10;24.00;96429.00;;;;4985112;28;20572;-88
2023/06/21 02:23:07;;;;;;;5.37;3.53;;;24.50;69.00;23.90;96437.00;;;;4984739;28;20333;-87
2023/06/21 02:25:36;;;;;;;6.27;3.50;;;24.40;68.90;23.90;96437.00;;;;4984041;28;20657;-87
2023/06/21 02:28:04;;;;;;;3.27;2.97;;;24.40;69.00;23.80;96437.00;;;;4977537;28;20219;-87
2023/06/21 02:30:31;;;;;;;4.50;3.43;;;24.40;69.00;23.80;96442.00;;;;4974094;28;20736;-87
2023/06/21 02:32:59;;;;;;;3.47;3.10;;;24.30;69.10;23.80;96449.00;;;;4987981;28;20568;-87
2023/06/21 02:35:28;;;;;;;4.13;3.40;;;24.30;69.20;23.70;96439.00;;;;4976322;28;20706;-87
2023/06/21 02:37:55;;;;;;;6.60;3.77;;;24.30;69.40;23.70;96443.00;;;;4991855;28;20760;-87
2023/06/21 02:40:23;;;;;;;3.97;3.60;;;24.20;69.40;23.70;96443.00;;;;4984988;28;20202;-88
2023/06/21 02:42:50;;;;;;;3.90;2.80;;;24.20;69.60;23.70;96442.00;;;;4984162;28;20199;-87
2023/06/21 02:45:18;;;;;;;3.97;2.97;;;24.20;69.70;23.60;96433.00;;;;4963432;28;20219;-87
2023/06/21 02:47:46;;;;;;;3.40;2.93;;;24.20;69.90;23.60;96436.00;;;;4979913;28;20210;-87
2023/06/21 02:50:15;;;;;;;4.80;3.00;;;24.10;69.80;23.60;96444.00;;;;4986899;28;20695;-87
2023/06/21 02:52:46;;;;;;;3.73;2.80;;;24.10;69.80;23.50;96440.00;;;;4985203;28;20198;-87
2023/06/21 02:55:13;;;;;;;4.03;3.07;;;24.10;70.70;23.50;96443.00;;;;4977530;28;20203;-87
2023/06/21 02:57:41;;;;;;;3.17;2.80;;;24.00;69.80;23.50;96443.00;;;;4984776;28;20206;-87
2023/06/21 03:00:19;;;;;;;4.17;3.33;;;24.00;69.80;23.50;96449.00;;;;4987541;28;20212;-87
2023/06/21 03:02:47;;;;;;;6.53;3.20;;;24.00;69.90;23.40;96456.00;;;;4985824;28;20642;-87
2023/06/21 03:05:16;;;;;;;5.10;3.33;;;24.00;69.90;23.40;96460.00;;;;4980776;28;20299;-87
2023/06/21 03:07:45;;;;;;;5.40;3.40;;;23.90;70.00;23.40;96451.00;;;;4986361;28;20242;-87
2023/06/21 03:10:13;;;;;;;4.17;3.40;;;23.90;70.00;23.40;96447.00;;;;4977307;28;20227;-87
2023/06/21 03:12:43;;;;;;;3.70;3.23;;;23.90;70.00;23.40;96445.00;;;;4986780;28;20200;-87
2023/06/21 03:15:12;;;;;;;4.90;3.23;;;23.90;70.20;23.30;96448.00;;;;4981844;28;20221;-87
2023/06/21 03:17:40;;;;;;;3.43;3.03;;;23.80;70.30;23.30;96455.00;;;;4988026;28;20278;-87
2023/06/21 03:20:12;;;;;;;5.33;2.70;;;23.80;70.20;23.30;96450.00;;;;4988423;28;20210;-87
2023/06/21 03:22:41;;;;;;;3.27;2.97;;;23.80;70.30;23.30;96454.00;;;;4999069;28;20205;-86
2023/06/21 03:25:12;;;;;;;3.83;3.23;;;23.80;70.30;23.30;96448.00;;;;4982676;28;20223;-87
2023/06/21 03:27:39;;;;;;;3.43;3.07;;;23.80;70.70;23.20;96457.00;;;;4986359;28;20194;-87
2023/06/21 03:30:11;;;;;;;4.30;2.73;;;23.80;70.60;23.20;96457.00;;;;4977597;28;20217;-87
2023/06/21 03:32:39;;;;;;;3.90;3.30;;;23.70;70.50;23.20;96456.00;;;;4984426;28;20205;-87
2023/06/21 03:35:07;;;;;;;3.63;3.23;;;23.70;70.50;23.20;96454.00;;;;4989837;28;20650;-88
2023/06/21 03:37:34;;;;;;;4.03;3.27;;;23.70;70.60;23.20;96456.00;;;;4981135;28;20209;-87
2023/06/21 03:40:01;;;;;;;4.30;3.20;;;23.60;70.50;23.10;96457.00;;;;4976561;28;20203;-87
2023/06/21 03:42:33;;;;;;;3.83;3.27;;;23.60;70.50;23.10;96455.00;;;;4983781;28;20201;-87
2023/06/21 03:45:00;;;;;;;6.53;3.10;;;23.60;70.60;23.10;96457.00;;;;4969610;28;20220;-87
2023/06/21 03:47:28;;;;;;;4.60;3.30;;;23.60;70.70;23.10;96461.00;;;;4992121;28;20210;-87
2023/06/21 03:49:57;;;;;;;4.57;3.00;;;23.60;70.80;23.00;96458.00;;;;4991517;28;20844;-87
2023/06/21 03:52:24;;;;;;;4.33;3.33;;;23.60;70.90;23.00;96467.00;;;;4991669;28;20230;-87
2023/06/21 03:54:53;;;;;;;3.57;3.10;;;23.50;70.80;23.00;96468.00;;;;4985978;28;20596;-87
2023/06/21 03:57:21;;;;;;;3.57;2.93;;;23.50;70.90;23.00;96470.00;;;;4979760;28;20196;-88
2023/06/21 03:59:49;;;;;;;4.47;3.30;;;23.50;71.00;23.00;96472.00;;;;4986670;28;20207;-88
2023/06/21 04:02:17;;;;;;;5.80;3.73;;;23.50;71.20;23.00;96472.00;;;;4988336;28;20204;-87
2023/06/21 04:04:44;;;;;;;4.20;3.37;;;23.50;71.40;23.00;96477.00;;;;4987143;28;20270;-87
2023/06/21 04:07:12;;;;;;;4.30;2.87;;;23.50;71.50;23.00;96476.00;;;;4980608;28;20205;-87
2023/06/21 04:09:39;;;;;;;6.30;4.07;;;23.40;72.40;23.00;96474.00;;;;4980806;28;20281;-87
2023/06/21 04:12:07;;;;;;;4.10;2.93;;;23.40;71.80;23.00;96475.00;;;;4981131;28;20209;-86
2023/06/21 04:14:35;;;;;;;3.50;3.20;;;23.40;72.00;23.00;96478.00;;;;4989971;28;20230;-86
2023/06/21 04:17:04;;;;;;;3.23;2.93;;;23.40;72.10;23.00;96492.00;;;;4987010;28;20215;-86
2023/06/21 04:19:31;;;;;;;3.57;3.20;;;23.50;72.40;23.00;96490.00;;;;4998255;28;20294;-86
2023/06/21 04:21:58;;;;;;;4.93;3.50;;;23.50;72.40;23.00;96490.00;;;;4997520;28;20211;-86
2023/06/21 04:24:26;;;;;;;5.77;3.80;;;23.50;72.60;23.00;96493.00;;;;4995014;28;20314;-87
2023/06/21 04:26:53;;;;;;;4.33;3.40;;;23.50;72.60;23.10;96485.00;;;;4978300;28;20200;-86
2023/06/21 04:29:22;;;;;;;4.60;4.10;;;23.50;72.60;23.10;96488.00;;;;4983009;28;20212;-87
2023/06/21 04:31:51;;;;;;;5.67;3.47;;;23.50;72.80;23.10;96486.00;;;;4988499;28;20340;-86
2023/06/21 04:34:20;;;;;;;4.30;3.93;;;23.50;72.80;23.10;96483.00;;;;4994576;28;20222;-86
2023/06/21 04:36:48;;;;;;;5.10;3.57;;;23.60;73.00;23.10;96484.00;;;;4995117;28;20209;-87
2023/06/21 04:39:17;;;;;;;7.80;3.90;;;23.60;73.00;23.20;96496.00;;;;4987070;28;20206;-85
2023/06/21 04:41:45;;;;;;;6.23;3.83;;;23.60;73.10;23.20;96498.00;;;;4995237;28;20413;-86
2023/06/21 04:44:13;;;;;;;3.70;3.40;;;23.60;73.10;23.20;96496.00;;;;4987127;28;20245;-86
2023/06/21 04:46:40;;;;;;;3.57;3.27;;;23.60;73.20;23.20;96496.00;;;;4982691;28;20587;-86
2023/06/21 04:49:07;;;;;;;5.47;3.73;;;23.70;73.30;23.30;96498.00;;;;4991931;28;20209;-87
2023/06/21 04:51:36;;;;;;;6.23;3.60;;;23.70;73.40;23.30;96508.00;;;;4987209;28;20591;-86
2023/06/21 04:54:03;;;;;;;7.67;4.57;;;23.70;73.50;23.30;96508.00;;;;4992735;28;20226;-86
2023/06/21 04:56:30;;;;;;;5.13;3.93;;;23.80;73.50;23.40;96511.00;;;;4998485;28;20202;-87
2023/06/21 04:58:57;;;;;;;4.57;3.87;;;23.80;73.50;23.40;96502.00;;;;4975877;28;20207;-86
2023/06/21 05:01:24;;;;;;;5.63;4.30;;;23.80;73.60;23.40;96506.00;;;;4975830;28;20217;-87
2023/06/21 05:03:52;;;;;;;7.47;4.30;;;23.80;73.70;23.40;96507.00;;;;4981435;28;20311;-86
2023/06/21 05:06:22;;;;;;;5.23;4.00;;;23.90;74.60;23.50;96521.00;;;;4987256;28;20235;-86
2023/06/21 05:08:50;;;;;;;6.40;4.33;;;23.90;73.90;23.50;96514.00;;;;4985374;28;20201;-86
2023/06/21 05:11:19;;;;;;;6.17;4.30;;;23.90;73.90;23.50;96525.00;;;;4982238;28;20225;-86
2023/06/21 05:13:46;;;;;;;6.00;4.20;;;23.90;73.70;23.60;96531.00;;;;4986450;28;20232;-86
2023/06/21 05:16:14;;;;;;;4.93;3.93;;;24.00;73.70;23.60;96530.00;;;;4977050;28;20226;-87
2023/06/21 05:18:42;;;;;;;8.17;4.13;;;23.90;73.60;23.60;96530.00;;;;4999982;28;20195;-87
2023/06/21 05:21:12;;;;;;;7.10;4.70;;;24.00;73.50;23.60;96527.00;;;;4992051;28;20200;-87
2023/06/21 05:23:39;;;;;;;7.20;4.73;;;24.00;73.50;23.70;96540.00;;;;4997444;28;20227;-87
2023/06/21 05:26:08;;;;;;;4.53;3.90;;;24.00;73.50;23.70;96539.00;;;;4991602;28;20209;-87
2023/06/21 05:28:35;;;;;;;5.57;4.23;;;24.00;73.60;23.70;96544.00;;;;4991069;28;20665;-87
2023/06/21 05:31:02;;;;;;;7.97;4.50;;;24.10;73.60;23.80;96543.00;;;;4989474;28;20236;-87
2023/06/21 05:33:29;;;;;;;6.10;4.73;;;24.10;73.60;23.80;96541.00;;;;4982758;28;20229;-87
2023/06/21 05:35:56;;;;;;;7.43;4.60;;;24.10;73.60;23.80;96556.00;;;;4981340;28;20224;-87
2023/06/21 05:38:24;;;;;;;5.40;3.83;;;24.20;73.60;23.90;96567.00;;;;4994168;28;20208;-87
2023/06/21 05:40:51;;;;;;;6.13;4.20;;;24.20;73.50;23.90;96565.00;;;;4986667;28;20681;-86
2023/06/21 05:43:19;;;;;;;6.17;3.90;;;24.20;73.50;23.90;96565.00;;;;4976199;28;20600;-86
2023/06/21 05:45:47;;;;;;;4.43;3.80;;;24.30;73.70;24.00;96573.00;;;;4991071;28;20206;-86
2023/06/21 05:48:14;;;;;;;3.83;3.50;;;24.30;73.70;24.00;96566.00;;;;4996580;28;20203;-87
2023/06/21 05:50:41;;;;;;;4.80;4.13;;;24.30;73.70;24.00;96566.00;;;;5006861;28;20595;-86
2023/06/21 05:53:08;;;;;;;6.33;3.97;;;24.40;73.70;24.10;96560.00;;;;4995692;28;20218;-87
2023/06/21 05:55:35;;;;;;;4.90;3.67;;;24.40;73.70;24.10;96572.00;;;;4986634;28;20209;-86
2023/06/21 05:58:03;;;;;;;3.83;3.50;;;24.50;73.80;24.20;96570.00;;;;5000062;28;20616;-86
2023/06/21 06:00:31;;;;;;;5.83;3.60;;;24.50;73.80;24.20;96576.00;;;;4987402;28;20210;-87
2023/06/21 06:02:59;;;;;;;6.93;4.07;;;24.60;73.90;24.30;96576.00;;;;4988118;28;20201;-86
2023/06/21 06:05:26;;;;;;;6.23;4.30;;;24.60;73.80;24.30;96585.00;;;;4992382;28;20256;-86
2023/06/21 06:07:53;;;;;;;7.00;4.30;;;24.60;73.80;24.40;96591.00;;;;4983177;28;20201;-86
2023/06/21 06:10:20;;;;;;;5.53;3.63;;;24.70;74.00;24.40;96587.00;;;;4975957;28;20213;-88
2023/06/21 06:12:48;;;;;;;4.47;3.87;;;24.70;73.80;24.50;96595.00;;;;4990651;28;20214;-87
2023/06/21 06:15:15;;;;;;;4.70;4.00;;;24.80;73.90;24.50;96600.00;;;;4992396;28;20717;-87
2023/06/21 06:17:46;;;;;;;6.43;4.00;;;24.80;73.70;24.60;96611.00;;;;4992172;28;20205;-89
2023/06/21 06:20:14;;;;;;;5.20;3.60;;;24.90;73.80;24.70;96608.00;;;;4991062;28;20207;-88
2023/06/21 06:22:41;;;;;;;5.00;3.90;;;24.90;73.90;24.70;96609.00;;;;4986679;28;20190;-87
2023/06/21 06:25:10;;;;;;;6.47;3.87;;;25.00;74.00;24.80;96615.00;;;;4984964;28;20215;-87
2023/06/21 06:27:38;;;;;;;4.97;3.67;;;25.10;74.00;24.90;96626.00;;;;4980611;28;20652;-86
2023/06/21 06:30:07;;;;;;;3.97;3.50;;;25.10;73.90;25.00;96623.00;;;;4984753;28;20195;-87
2023/06/21 06:32:34;;;;;;;5.13;3.90;;;25.20;74.00;25.10;96616.00;;;;4985125;28;20237;-86
2023/06/21 06:35:03;;;;;;;5.53;3.47;;;25.30;74.10;25.10;96616.00;;;;4985187;28;20226;-86
2023/06/21 06:37:30;;;;;;;5.43;3.40;;;25.40;73.50;25.20;96612.00;;;;4990193;28;20214;-86
2023/06/21 06:39:57;;;;;;;4.03;3.30;;;25.40;72.50;25.30;96621.00;;;;4989025;28;20200;-85
2023/06/21 06:42:24;;;;;;;4.23;3.37;;;25.50;72.50;25.30;96628.00;;;;5000326;28;21361;-87
2023/06/21 06:44:53;;;;;;;4.97;3.60;;;25.50;72.20;25.40;96631.00;;;;5004787;28;20364;-85
2023/06/21 06:47:21;;;;;;;5.97;3.67;;;25.60;72.50;25.50;96631.00;;;;4993347;28;20676;-86
2023/06/21 06:49:48;;;;;;;8.03;3.63;;;25.70;72.60;25.60;96628.00;;;;4988798;28;20202;-87
2023/06/21 06:52:17;;;;;;;3.97;3.20;;;25.80;72.50;25.60;96643.00;;;;4996415;28;20226;-85
2023/06/21 06:54:44;;;;;;;4.67;3.37;;;25.80;72.30;25.70;96647.00;;;;5001310;28;20750;-86
2023/06/21 06:57:11;;;;;;;5.97;2.90;;;25.90;71.80;25.80;96643.00;;;;4991304;28;20281;-86
2023/06/21 06:59:39;;;;;;;4.23;3.23;;;26.00;72.00;25.90;96644.00;;;;4996454;28;20201;-86
2023/06/21 07:02:08;;;;;;;4.67;3.70;;;26.10;72.40;26.10;96654.00;;;;5001508;28;20208;-86
2023/06/21 07:04:35;;;;;;;5.10;3.20;;;26.20;72.10;26.20;96657.00;;;;4973481;28;20223;-86
2023/06/21 07:07:03;;;;;;;3.50;3.20;;;26.30;71.70;26.30;96662.00;;;;4989190;28;20202;-86
2023/06/21 07:09:33;;;;;;;5.13;3.00;;;26.40;71.90;26.50;96669.00;;;;4999622;28;20654;-86
2023/06/21 07:12:01;;;;;;;5.47;3.70;;;26.50;71.50;26.60;96664.00;;;;4992325;28;20273;-86
2023/06/21 07:14:29;;;;;;;3.87;3.13;;;26.70;71.60;26.70;96665.00;;;;4988383;28;20231;-86
2023/06/21 07:16:56;;;;;;;4.13;3.00;;;26.80;70.50;26.90;96674.00;;;;4979523;28;20285;-86
2023/06/21 07:19:23;;;;;;;3.73;3.40;;;27.00;69.70;27.00;96677.00;;;;4990371;28;20199;-86
2023/06/21 07:21:51;;;;;;;4.23;3.47;;;27.10;69.60;27.20;96678.00;;;;4973400;28;20217;-88
2023/06/21 07:24:18;;;;;;;4.40;3.63;;;27.20;69.80;27.30;96675.00;;;;4990572;28;20226;-87
2023/06/21 07:26:47;;;;;;;5.45;3.33;;;27.40;69.70;27.40;96670.00;;;;4990228;28;20214;-87
2023/06/21 07:29:14;;;;;;;3.10;2.75;;;27.50;69.10;27.50;96665.00;;;;4980787;28;20234;-87
2023/06/21 07:31:41;;;;;;;5.00;3.20;;;27.60;68.80;27.60;96657.00;;;;5001019;28;20232;-87
2023/06/21 07:34:10;;;;;;;3.47;3.13;;;27.70;68.00;27.80;96667.00;;;;5006996;28;20229;-88
2023/06/21 07:36:37;;;;;;;5.82;3.33;;;27.90;67.40;27.90;96674.00;;;;5004493;28;20666;-87
2023/06/21 07:39:05;;;;;;;4.18;3.28;;;28.00;66.50;28.10;96667.00;;;;4997381;28;20289;-87
2023/06/21 07:41:32;;;;;;;4.38;3.45;;;28.10;65.80;28.20;96663.00;;;;5003519;28;20193;-87
2023/06/21 07:44:01;;;;;;;4.63;2.72;;;28.20;65.20;28.40;96658.00;;;;5005364;28;20683;-87
2023/06/21 07:46:28;;;;;;;3.20;2.88;;;28.40;64.90;28.50;96664.00;;;;4996998;28;20286;-88
2023/06/21 07:48:55;;;;;;;4.15;3.15;;;28.50;64.20;28.60;96662.00;;;;4980432;28;20309;-87
2023/06/21 07:51:22;;;;;;;3.97;3.03;;;28.60;64.00;28.80;96661.00;;;;4967924;28;20704;-87
2023/06/21 07:53:50;;;;;;;4.90;3.17;;;28.70;63.70;28.90;96668.00;;;;4984520;28;20226;-88
2023/06/21 07:56:17;;;;;;;5.53;3.30;;;28.90;63.00;29.00;96672.00;;;;4995165;28;20614;-89
2023/06/21 07:58:46;;;;;;;5.32;3.40;;;29.00;62.90;29.20;96662.00;;;;4997793;28;20568;-89
2023/06/21 08:01:15;;;;;;;5.15;3.58;;;29.20;61.60;29.30;96673.00;;;;5004239;28;20265;-87
2023/06/21 08:03:42;;;;;;;3.80;3.33;;;29.30;61.40;29.40;96666.00;;;;5002797;28;20219;-87
2023/06/21 08:06:11;;;;;;;3.95;3.33;;;29.40;61.00;29.50;96665.00;;;;4994779;28;20285;-88
2023/06/21 08:08:39;;;;;;;3.42;3.13;;;29.50;61.00;29.60;96662.00;;;;4975798;28;20287;-87
2023/06/21 08:11:08;;;;;;;4.72;3.47;;;29.60;60.80;29.70;96654.00;;;;4974664;28;20215;-87
2023/06/21 08:13:36;;;;;;;4.03;3.25;;;29.70;60.40;29.80;96658.00;;;;4991778;28;20214;-87
2023/06/21 08:16:04;;;;;;;6.57;3.78;;;29.80;60.90;29.90;96663.00;;;;4990733;28;20213;-88
2023/06/21 08:18:37;;;;;;;3.60;3.28;;;29.90;60.60;30.00;96666.00;;;;5021878;28;20678;-87
2023/06/21 08:21:05;;;;;;;3.15;2.67;;;30.10;60.00;30.00;96664.00;;;;5007961;28;20277;-87
2023/06/21 08:23:33;;;;;;;5.50;3.45;;;30.10;60.30;30.10;96672.00;;;;5009674;28;20215;-87
2023/06/21 08:26:00;;;;;;;3.88;3.33;;;30.20;59.50;30.20;96668.00;;;;4975061;28;20200;-87
2023/06/21 08:28:28;;;;;;;4.80;3.50;;;30.30;59.20;30.30;96665.00;;;;5002964;28;20229;-87
2023/06/21 08:30:55;;;;;;;4.90;3.67;;;30.40;59.20;30.40;96664.00;;;;4995922;28;20202;-87
2023/06/21 08:33:22;;;;;;;6.18;4.32;;;30.50;58.80;30.50;96661.00;;;;4987530;28;20317;-87
2023/06/21 08:35:51;;;;;;;5.03;3.72;;;30.60;58.60;30.60;96662.00;;;;4995686;28;20209;-87
2023/06/21 08:38:18;;;;;;;5.35;3.50;;;30.70;58.50;30.70;96659.00;;;;4995261;28;20690;-88
2023/06/21 08:40:47;;;;;;;4.43;3.40;;;30.80;58.10;30.80;96664.00;;;;4989837;28;20282;-87
2023/06/21 08:43:15;;;;;;;3.53;3.20;;;30.80;57.80;30.90;96669.00;;;;4984875;28;20222;-88
2023/06/21 08:45:42;;;;;;;6.63;3.58;;;30.90;57.40;31.00;96663.00;;;;4995941;28;20205;-88
2023/06/21 08:48:11;;;;;;;5.95;4.30;;;31.00;57.40;31.10;96665.00;;;;4987399;28;20239;-88
2023/06/21 08:50:43;;;;;;;3.97;3.35;;;31.10;56.60;31.20;96667.00;;;;4994806;28;20582;-88
2023/06/21 08:53:17;;;;;;;5.35;3.53;;;31.20;56.60;31.30;96664.00;;;;5002203;28;20240;-88
2023/06/21 08:55:45;;;;;;;4.03;3.20;;;31.40;56.90;31.40;96673.00;;;;4982862;28;20206;-88
2023/06/21 08:58:22;;;;;;;4.20;3.40;;;31.40;57.30;31.50;96665.00;;;;4973905;28;20691;-88
2023/06/21 09:00:55;;;;;;;3.70;3.40;;;31.60;56.20;31.60;96671.00;;;;4979984;28;20202;-87
2023/06/21 09:03:28;;;;;;;3.97;3.33;;;31.70;56.00;31.80;96674.00;;;;4960909;28;20784;-87
2023/06/21 09:06:00;;;;;;;3.97;3.35;;;31.80;56.10;31.90;96671.00;;;;4992316;28;20199;-87
2023/06/21 09:08:28;;;;;;;3.47;3.10;;;31.90;55.70;32.00;96679.00;;;;4992100;28;20202;-87
2023/06/21 09:10:58;;;;;;;4.80;3.47;;;32.00;54.80;32.10;96681.00;;;;4983915;28;20295;-87
2023/06/21 09:13:27;;;;;;;5.03;3.95;;;32.10;53.90;32.20;96678.00;;;;4981906;28;20309;-87
2023/06/21 09:15:55;;;;;;;3.92;3.55;;;32.20;54.00;32.30;96687.00;;;;4988759;28;20277;-88
2023/06/21 09:18:24;;;;;;;3.58;3.28;;;32.30;54.00;32.40;96682.00;;;;4994535;28;20199;-86
2023/06/21 09:20:52;;;;;;;4.00;3.70;;;32.50;53.90;32.50;96685.00;;;;4999786;28;20619;-88
2023/06/21 09:23:20;;;;;;;3.58;3.28;;;32.50;53.70;32.60;96686.00;;;;4995405;28;20226;-88
2023/06/21 09:25:49;;;;;;;3.95;3.35;;;32.70;53.40;32.70;96692.00;;;;4987032;28;20199;-87
2023/06/21 09:28:16;;;;;;;3.40;3.10;;;32.80;53.10;32.80;96691.00;;;;4985158;28;20198;-87
2023/06/21 09:30:44;;;;;;;4.60;3.28;;;32.90;53.50;32.90;96700.00;;;;4986913;28;20206;-88
2023/06/21 09:33:11;;;;;;;3.40;3.15;;;33.00;53.30;33.00;96700.00;;;;5001452;28;20265;-88
2023/06/21 09:35:39;;;;;;;4.53;3.03;;;33.10;52.30;33.10;96701.00;;;;4990519;28;20287;-88
2023/06/21 09:38:23;;;;;;;5.25;3.40;;;33.20;52.00;33.20;96701.00;;;;4991236;28;20203;-88
2023/06/21 09:40:52;;;;;;;3.05;2.85;;;33.30;50.90;33.40;96692.00;;;;4993237;28;20698;-88
2023/06/21 09:43:21;;;;;;;6.57;3.05;;;33.40;50.80;33.40;96685.00;;;;4987631;28;20758;-87
2023/06/21 09:46:03;;;;;;;3.67;2.80;;;33.50;51.00;33.60;96680.00;;;;4980305;28;20205;-88
2023/06/21 09:48:34;;;;;;;4.30;3.10;;;33.70;50.30;33.70;96674.00;;;;4990908;28;20199;-88
2023/06/21 09:51:04;;;;;;;5.78;3.45;;;33.80;51.00;33.80;96663.00;;;;4974746;28;20209;-88
2023/06/21 09:53:31;;;;;;;4.07;3.42;;;34.00;50.80;34.00;96651.00;;;;4990316;28;20227;-88
2023/06/21 09:56:00;;;;;;;4.13;2.88;;;34.20;51.10;34.20;96655.00;;;;4987793;28;20285;-88
2023/06/21 09:58:28;;;;;;;5.32;3.03;;;34.50;50.90;34.40;96644.00;;;;4989513;28;20203;-88
2023/06/21 10:00:57;;;;;;;4.40;3.60;;;34.70;50.90;34.60;96637.00;;;;4979212;28;20203;-88
2023/06/21 10:03:26;;;;;;;3.33;3.00;;;35.00;50.80;34.80;96638.00;;;;4980300;28;20588;-88
2023/06/21 10:05:56;;;;;;;4.68;2.83;;;35.20;49.90;34.90;96651.00;;;;4979546;28;20199;-88
2023/06/21 10:08:26;;;;;;;3.90;3.17;;;35.50;49.80;35.00;96665.00;;;;4990486;28;20199;-88
2023/06/21 10:10:54;;;;;;;3.40;3.03;;;35.70;49.40;35.10;96674.00;;;;4973209;28;20207;-89
2023/06/21 10:13:31;;;;;;;4.72;3.05;;;35.80;48.50;35.20;96684.00;;;;4992479;28;20769;-88
2023/06/21 10:16:02;;;;;;;5.38;3.30;;;35.90;46.80;35.30;96702.00;;;;4989009;28;20206;-88
2023/06/21 10:18:30;;;;;;;3.65;3.05;;;36.00;47.40;35.30;96711.00;;;;4988925;28;20209;-89
2023/06/21 10:21:02;;;;;;;4.47;3.15;;;36.10;47.20;35.30;96727.00;;;;4979258;28;20708;-89
2023/06/21 10:23:33;;;;;;;3.65;3.10;;;36.00;46.30;35.20;96739.00;;;;4992249;28;20297;-88
2023/06/21 10:26:05;;;;;;;4.25;3.08;;;36.00;45.90;35.10;96757.00;;;;4993828;28;20201;-89
2023/06/21 10:28:42;;;;;;;3.63;3.20;;;35.90;46.30;35.00;96787.00;;;;4993261;28;20205;-88
2023/06/21 10:31:10;;;;;;;4.60;3.42;;;35.70;45.70;34.90;96803.00;;;;4996899;28;20447;-88
2023/06/21 10:33:39;;;;;;;4.22;3.05;;;35.60;45.80;34.70;96825.00;;;;4981744;28;20613;-89
2023/06/21 10:36:12;;;;;;;3.22;2.78;;;35.40;45.60;34.60;96838.00;;;;4974467;28;20199;-89
2023/06/21 10:38:44;;;;;;;3.65;2.90;;;35.20;45.70;34.40;96848.00;;;;4986360;28;20205;-89
2023/06/21 10:41:14;;;;;;;6.82;3.28;;;35.00;45.90;34.20;96860.00;;;;4993619;28;20195;-89
2023/06/21 10:43:44;;;;;;;3.30;3.05;;;34.80;46.10;34.00;96873.00;;;;4989336;28;20242;-89
2023/06/21 10:46:13;;;;;;;3.63;3.30;;;34.60;46.70;33.90;96902.00;;;;4981467;28;20652;-89
2023/06/21 10:48:45;;;;;;;4.15;2.90;;;34.40;46.60;33.70;96955.00;;;;4984006;28;20241;-87
2023/06/21 10:51:15;;;;;;;6.38;2.60;;;34.20;46.40;33.30;96963.00;;;;4992823;28;20203;-88
2023/06/21 10:53:44;;;;;;;7.57;3.42;;;33.90;47.00;32.90;96873.00;;;;4987001;28;20278;-89
2023/06/21 10:56:16;;;;;;;6.55;2.60;;;33.60;48.00;32.40;96876.00;;;;4988999;28;20678;-88
2023/06/21 10:58:47;;;;;;;9.15;2.58;;;33.30;48.30;31.70;96931.00;;;;4983116;28;20223;-87
2023/06/21 11:01:15;;;;;;;12.35;4.15;;;32.80;47.90;31.10;96877.00;;;;4983439;28;20235;-88
2023/06/21 11:03:43;;;;;;;9.45;3.03;;;32.30;47.80;30.50;96869.00;;;;4985284;28;20598;-87